sensor_id;sensor_type;location;lat;lon;timestamp;pressure;altitude;pressure_sealevel;temperature;humidity
20424;BME280;10371;49.042;8.002;2023-03-25T00:00:59;99224.88;;;9.24;100.00
20424;BME280;10371;49.042;8.002;2023-03-25T00:02:00;99232.66;;;9.24;100.00
20424;BME280;10371;49.042;8.002;2023-03-25T00:03:00;99228.53;;;9.22;100.00
20424;BME280;10371;49.042;8.002;2023-03-25T00:04:01;99232.28;;;9.29;100.00
20424;BME280;10371;49.042;8.002;2023-03-25T00:05:03;99237.59;;;9.27;100.00
20424;BME280;10371;49.042;8.002;2023-03-25T00:06:05;99237.72;;;9.26;100.00
20424;BME280;10371;49.042;8.002;2023-03-25T00:07:06;99231.28;;;9.20;100.00
20424;BME280;10371;49.042;8.002;2023-03-25T00:08:06;99243.44;;;9.20;100.00
20424;BME280;10371;49.042;8.002;2023-03-25T00:09:07;99236.22;;;9.23;100.00
20424;BME280;10371;49.042;8.002;2023-03-25T00:10:08;99238.81;;;9.23;100.00
20424;BME280;10371;49.042;8.002;2023-03-25T00:11:08;99242.59;;;9.19;100.00
20424;BME280;10371;49.042;8.002;2023-03-25T00:12:09;99230.88;;;9.25;100.00
20424;BME280;10371;49.042;8.002;2023-03-25T00:13:09;99235.50;;;9.21;100.00
20424;BME280;10371;49.042;8.002;2023-03-25T00:14:12;99239.06;;;9.20;100.00
20424;BME280;10371;49.042;8.002;2023-03-25T00:15:16;99238.38;;;9.18;100.00
20424;BME280;10371;49.042;8.002;2023-03-25T00:16:17;99242.75;;;9.17;100.00
20424;BME280;10371;49.042;8.002;2023-03-25T00:17:18;99244.53;;;9.17;100.00
20424;BME280;10371;49.042;8.002;2023-03-25T00:18:20;99243.56;;;9.18;100.00
20424;BME280;10371;49.042;8.002;2023-03-25T00:19:20;99241.94;;;9.17;100.00
20424;BME280;10371;49.042;8.002;2023-03-25T00:20:21;99246.72;;;9.22;100.00
20424;BME280;10371;49.042;8.002;2023-03-25T00:21:21;99244.97;;;9.22;100.00
20424;BME280;10371;49.042;8.002;2023-03-25T00:22:22;99244.88;;;9.33;100.00
20424;BME280;10371;49.042;8.002;2023-03-25T00:23:22;99249.28;;;9.43;100.00
20424;BME280;10371;49.042;8.002;2023-03-25T00:24:23;99248.31;;;9.44;99.99
20424;BME280;10371;49.042;8.002;2023-03-25T00:25:23;99247.94;;;9.48;99.75
20424;BME280;10371;49.042;8.002;2023-03-25T00:26:23;99243.19;;;9.53;98.84
20424;BME280;10371;49.042;8.002;2023-03-25T00:27:23;99246.59;;;9.54;98.40
20424;BME280;10371;49.042;8.002;2023-03-25T00:28:27;99250.00;;;9.54;98.04
20424;BME280;10371;49.042;8.002;2023-03-25T00:29:29;99236.75;;;9.57;97.76
20424;BME280;10371;49.042;8.002;2023-03-25T00:30:30;99246.63;;;9.63;97.35
20424;BME280;10371;49.042;8.002;2023-03-25T00:31:30;99233.34;;;9.67;96.79
20424;BME280;10371;49.042;8.002;2023-03-25T00:32:31;99235.41;;;9.63;96.81
20424;BME280;10371;49.042;8.002;2023-03-25T00:33:31;99232.41;;;9.68;96.92
20424;BME280;10371;49.042;8.002;2023-03-25T00:34:32;99231.88;;;9.64;97.46
20424;BME280;10371;49.042;8.002;2023-03-25T00:35:35;99231.88;;;9.64;97.45
20424;BME280;10371;49.042;8.002;2023-03-25T00:36:36;99233.78;;;9.62;97.87
20424;BME280;10371;49.042;8.002;2023-03-25T00:37:36;99228.41;;;9.63;98.32
20424;BME280;10371;49.042;8.002;2023-03-25T00:38:37;99234.59;;;9.62;98.75
20424;BME280;10371;49.042;8.002;2023-03-25T00:39:38;99237.44;;;9.59;98.95
20424;BME280;10371;49.042;8.002;2023-03-25T00:40:38;99242.25;;;9.64;99.31
20424;BME280;10371;49.042;8.002;2023-03-25T00:41:39;99237.06;;;9.64;99.48
20424;BME280;10371;49.042;8.002;2023-03-25T00:42:41;99236.66;;;9.69;99.54
20424;BME280;10371;49.042;8.002;2023-03-25T00:43:44;99224.06;;;9.64;99.58
20424;BME280;10371;49.042;8.002;2023-03-25T00:44:44;99222.13;;;9.66;99.45
20424;BME280;10371;49.042;8.002;2023-03-25T00:45:44;99227.75;;;9.61;99.79
20424;BME280;10371;49.042;8.002;2023-03-25T00:46:45;99219.25;;;9.59;100.00
20424;BME280;10371;49.042;8.002;2023-03-25T00:47:45;99222.25;;;9.55;100.00
20424;BME280;10371;49.042;8.002;2023-03-25T00:48:45;99219.22;;;9.50;100.00
20424;BME280;10371;49.042;8.002;2023-03-25T00:49:47;99220.88;;;9.51;100.00
20424;BME280;10371;49.042;8.002;2023-03-25T00:50:47;99220.19;;;9.49;100.00
20424;BME280;10371;49.042;8.002;2023-03-25T00:51:48;99213.91;;;9.51;100.00
20424;BME280;10371;49.042;8.002;2023-03-25T00:52:48;99215.69;;;9.51;100.00
20424;BME280;10371;49.042;8.002;2023-03-25T00:53:53;99219.38;;;9.58;100.00
20424;BME280;10371;49.042;8.002;2023-03-25T00:54:53;99213.50;;;9.56;100.00
20424;BME280;10371;49.042;8.002;2023-03-25T00:55:56;99202.44;;;9.54;100.00
20424;BME280;10371;49.042;8.002;2023-03-25T00:56:57;99203.94;;;9.56;100.00
20424;BME280;10371;49.042;8.002;2023-03-25T00:57:57;99207.09;;;9.60;100.00
20424;BME280;10371;49.042;8.002;2023-03-25T00:58:57;99205.84;;;9.54;100.00
20424;BME280;10371;49.042;8.002;2023-03-25T00:59:58;99201.19;;;9.48;100.00
20424;BME280;10371;49.042;8.002;2023-03-25T01:00:58;99207.19;;;9.49;100.00
20424;BME280;10371;49.042;8.002;2023-03-25T01:01:58;99196.09;;;9.47;100.00
20424;BME280;10371;49.042;8.002;2023-03-25T01:02:59;99203.88;;;9.47;100.00
20424;BME280;10371;49.042;8.002;2023-03-25T01:04:02;99201.28;;;9.47;100.00
20424;BME280;10371;49.042;8.002;2023-03-25T01:05:03;99202.53;;;9.43;100.00
20424;BME280;10371;49.042;8.002;2023-03-25T01:06:14;99201.28;;;9.47;100.00
20424;BME280;10371;49.042;8.002;2023-03-25T01:07:16;99201.88;;;9.50;100.00
20424;BME280;10371;49.042;8.002;2023-03-25T01:08:17;99210.75;;;9.48;100.00
20424;BME280;10371;49.042;8.002;2023-03-25T01:09:19;99211.56;;;9.48;100.00
20424;BME280;10371;49.042;8.002;2023-03-25T01:10:20;99212.13;;;9.52;100.00
20424;BME280;10371;49.042;8.002;2023-03-25T01:11:24;99212.94;;;9.52;100.00
20424;BME280;10371;49.042;8.002;2023-03-25T01:12:24;99214.59;;;9.53;99.93
20424;BME280;10371;49.042;8.002;2023-03-25T01:13:26;99222.25;;;9.55;99.82
20424;BME280;10371;49.042;8.002;2023-03-25T01:14:26;99215.44;;;9.63;99.65
20424;BME280;10371;49.042;8.002;2023-03-25T01:15:28;99222.13;;;9.66;99.72
20424;BME280;10371;49.042;8.002;2023-03-25T01:16:28;99222.28;;;9.65;99.65
20424;BME280;10371;49.042;8.002;2023-03-25T01:17:28;99227.16;;;9.58;100.00
20424;BME280;10371;49.042;8.002;2023-03-25T01:18:29;99221.97;;;9.58;100.00
20424;BME280;10371;49.042;8.002;2023-03-25T01:19:33;99221.97;;;9.48;100.00
20424;BME280;10371;49.042;8.002;2023-03-25T01:20:34;99221.41;;;9.45;100.00
20424;BME280;10371;49.042;8.002;2023-03-25T01:21:35;99224.91;;;9.34;100.00
20424;BME280;10371;49.042;8.002;2023-03-25T01:22:36;99220.72;;;9.43;100.00
20424;BME280;10371;49.042;8.002;2023-03-25T01:23:36;99226.03;;;9.41;100.00
20424;BME280;10371;49.042;8.002;2023-03-25T01:24:37;99228.78;;;9.39;100.00
20424;BME280;10371;49.042;8.002;2023-03-25T01:25:37;99230.66;;;9.37;100.00
20424;BME280;10371;49.042;8.002;2023-03-25T01:26:38;99255.28;;;9.33;100.00
20424;BME280;10371;49.042;8.002;2023-03-25T01:27:40;99241.31;;;9.34;100.00
20424;BME280;10371;49.042;8.002;2023-03-25T01:28:41;99222.44;;;9.32;100.00
20424;BME280;10371;49.042;8.002;2023-03-25T01:29:42;99259.88;;;9.30;99.82
20424;BME280;10371;49.042;8.002;2023-03-25T01:30:42;99250.84;;;9.24;99.03
20424;BME280;10371;49.042;8.002;2023-03-25T01:31:43;99259.03;;;9.20;97.98
20424;BME280;10371;49.042;8.002;2023-03-25T01:32:43;99262.25;;;9.12;98.00
20424;BME280;10371;49.042;8.002;2023-03-25T01:33:43;99248.28;;;9.03;98.01
20424;BME280;10371;49.042;8.002;2023-03-25T01:34:44;99230.75;;;8.95;98.45
20424;BME280;10371;49.042;8.002;2023-03-25T01:35:45;99210.50;;;8.89;99.53
20424;BME280;10371;49.042;8.002;2023-03-25T01:36:46;99214.97;;;8.87;99.97
20424;BME280;10371;49.042;8.002;2023-03-25T01:37:47;99207.56;;;8.83;100.00
20424;BME280;10371;49.042;8.002;2023-03-25T01:38:47;99206.19;;;8.79;100.00
20424;BME280;10371;49.042;8.002;2023-03-25T01:39:49;99203.41;;;8.70;100.00
20424;BME280;10371;49.042;8.002;2023-03-25T01:40:51;99202.69;;;8.68;100.00
20424;BME280;10371;49.042;8.002;2023-03-25T01:41:51;99195.88;;;8.67;100.00
20424;BME280;10371;49.042;8.002;2023-03-25T01:42:54;99203.78;;;8.66;100.00
20424;BME280;10371;49.042;8.002;2023-03-25T01:44:02;99193.41;;;8.66;100.00
20424;BME280;10371;49.042;8.002;2023-03-25T01:45:26;99189.16;;;8.65;100.00
20424;BME280;10371;49.042;8.002;2023-03-25T01:46:28;99193.53;;;8.64;100.00
20424;BME280;10371;49.042;8.002;2023-03-25T01:47:28;99189.28;;;8.63;100.00
20424;BME280;10371;49.042;8.002;2023-03-25T01:48:38;99185.75;;;8.64;100.00
20424;BME280;10371;49.042;8.002;2023-03-25T01:49:42;99187.09;;;8.59;100.00
20424;BME280;10371;49.042;8.002;2023-03-25T01:50:55;99189.44;;;8.62;100.00
20424;BME280;10371;49.042;8.002;2023-03-25T01:52:02;99192.94;;;8.61;100.00
20424;BME280;10371;49.042;8.002;2023-03-25T01:53:05;99188.97;;;8.57;100.00
20424;BME280;10371;49.042;8.002;2023-03-25T01:54:06;99192.38;;;8.57;100.00
20424;BME280;10371;49.042;8.002;2023-03-25T01:55:06;99190.34;;;8.61;100.00
20424;BME280;10371;49.042;8.002;2023-03-25T01:56:08;99188.72;;;8.60;100.00
20424;BME280;10371;49.042;8.002;2023-03-25T01:57:12;99193.91;;;8.60;100.00
20424;BME280;10371;49.042;8.002;2023-03-25T01:58:17;99208.09;;;8.56;99.48
20424;BME280;10371;49.042;8.002;2023-03-25T01:59:21;99202.66;;;8.59;98.57
20424;BME280;10371;49.042;8.002;2023-03-25T02:00:24;99198.28;;;8.59;98.25
20424;BME280;10371;49.042;8.002;2023-03-25T02:01:26;99196.66;;;8.58;98.11
20424;BME280;10371;49.042;8.002;2023-03-25T02:02:27;99199.09;;;8.60;98.30
20424;BME280;10371;49.042;8.002;2023-03-25T02:03:33;99202.66;;;8.59;98.23
20424;BME280;10371;49.042;8.002;2023-03-25T02:04:48;99202.91;;;8.56;98.47
20424;BME280;10371;49.042;8.002;2023-03-25T02:06:03;99198.34;;;8.48;98.33
20424;BME280;10371;49.042;8.002;2023-03-25T02:07:06;99196.38;;;8.40;98.12
20424;BME280;10371;49.042;8.002;2023-03-25T02:08:11;99191.88;;;8.42;97.68
20424;BME280;10371;49.042;8.002;2023-03-25T02:09:14;99203.91;;;8.43;97.48
20424;BME280;10371;49.042;8.002;2023-03-25T02:10:16;99203.78;;;8.45;97.16
20424;BME280;10371;49.042;8.002;2023-03-25T02:11:17;99199.78;;;8.41;97.11
20424;BME280;10371;49.042;8.002;2023-03-25T02:12:17;99202.13;;;8.33;97.00
20424;BME280;10371;49.042;8.002;2023-03-25T02:13:18;99203.84;;;8.22;97.31
20424;BME280;10371;49.042;8.002;2023-03-25T02:14:22;99201.81;;;8.26;97.69
20424;BME280;10371;49.042;8.002;2023-03-25T02:15:23;99198.28;;;8.27;98.03
20424;BME280;10371;49.042;8.002;2023-03-25T02:16:31;99194.31;;;8.23;98.26
20424;BME280;10371;49.042;8.002;2023-03-25T02:19:22;99192.66;;;8.22;99.18
20424;BME280;10371;49.042;8.002;2023-03-25T02:29:14;99222.41;;;8.06;100.00
20424;BME280;10371;49.042;8.002;2023-03-25T02:30:45;99227.09;;;8.13;100.00
20424;BME280;10371;49.042;8.002;2023-03-25T02:32:17;99216.97;;;8.10;100.00
20424;BME280;10371;49.042;8.002;2023-03-25T02:37:29;99221.28;;;8.20;100.00
20424;BME280;10371;49.042;8.002;2023-03-25T02:39:57;99215.16;;;8.21;100.00
20424;BME280;10371;49.042;8.002;2023-03-25T02:45:18;99223.28;;;8.28;100.00
20424;BME280;10371;49.042;8.002;2023-03-25T02:46:22;99218.78;;;8.30;100.00
20424;BME280;10371;49.042;8.002;2023-03-25T02:47:28;99222.47;;;8.27;100.00
20424;BME280;10371;49.042;8.002;2023-03-25T02:48:35;99226.53;;;8.30;100.00
20424;BME280;10371;49.042;8.002;2023-03-25T02:49:42;99232.81;;;8.39;100.00
20424;BME280;10371;49.042;8.002;2023-03-25T02:50:55;99230.66;;;8.44;100.00
20424;BME280;10371;49.042;8.002;2023-03-25T02:52:05;99239.97;;;8.46;99.74
20424;BME280;10371;49.042;8.002;2023-03-25T02:53:10;99241.16;;;8.42;99.81
20424;BME280;10371;49.042;8.002;2023-03-25T02:54:14;99228.19;;;8.42;99.39
20424;BME280;10371;49.042;8.002;2023-03-25T02:55:17;99241.03;;;8.44;99.13
20424;BME280;10371;49.042;8.002;2023-03-25T02:56:22;99241.28;;;8.41;99.32
20424;BME280;10371;49.042;8.002;2023-03-25T02:57:25;99233.63;;;8.39;99.04
20424;BME280;10371;49.042;8.002;2023-03-25T02:58:30;99234.09;;;8.33;99.53
20424;BME280;10371;49.042;8.002;2023-03-25T02:59:32;99236.69;;;8.33;99.89
20424;BME280;10371;49.042;8.002;2023-03-25T03:00:37;99233.84;;;8.36;100.00
20424;BME280;10371;49.042;8.002;2023-03-25T03:01:40;99235.28;;;8.40;99.91
20424;BME280;10371;49.042;8.002;2023-03-25T03:03:01;99231.75;;;8.41;99.83
20424;BME280;10371;49.042;8.002;2023-03-25T03:04:02;99226.75;;;8.38;99.62
20424;BME280;10371;49.042;8.002;2023-03-25T03:05:23;99228.78;;;8.35;99.92
20424;BME280;10371;49.042;8.002;2023-03-25T03:06:25;99237.28;;;8.37;99.89
20424;BME280;10371;49.042;8.002;2023-03-25T03:07:28;99247.75;;;8.35;100.00
20424;BME280;10371;49.042;8.002;2023-03-25T03:08:42;99237.88;;;8.29;100.00
20424;BME280;10371;49.042;8.002;2023-03-25T03:10:14;99244.94;;;8.27;100.00
20424;BME280;10371;49.042;8.002;2023-03-25T03:11:22;99238.59;;;8.31;100.00
20424;BME280;10371;49.042;8.002;2023-03-25T03:13:57;99233.75;;;8.26;100.00
20424;BME280;10371;49.042;8.002;2023-03-25T03:15:13;99234.47;;;8.28;100.00
20424;BME280;10371;49.042;8.002;2023-03-25T03:16:50;99231.63;;;8.32;100.00
20424;BME280;10371;49.042;8.002;2023-03-25T03:19:39;99230.91;;;8.29;100.00
20424;BME280;10371;49.042;8.002;2023-03-25T03:20:56;99228.47;;;8.28;100.00
20424;BME280;10371;49.042;8.002;2023-03-25T03:22:12;99228.47;;;8.28;100.00
20424;BME280;10371;49.042;8.002;2023-03-25T03:23:34;99227.50;;;8.29;100.00
20424;BME280;10371;49.042;8.002;2023-03-25T03:24:39;99215.34;;;8.41;99.58
20424;BME280;10371;49.042;8.002;2023-03-25T03:25:55;99220.16;;;8.45;98.64
20424;BME280;10371;49.042;8.002;2023-03-25T03:28:08;99215.53;;;8.49;98.00
20424;BME280;10371;49.042;8.002;2023-03-25T03:29:15;99205.97;;;8.49;97.67
20424;BME280;10371;49.042;8.002;2023-03-25T03:31:46;99214.88;;;8.47;97.62
20424;BME280;10371;49.042;8.002;2023-03-25T03:34:21;99213.75;;;8.49;96.79
20424;BME280;10371;49.042;8.002;2023-03-25T03:35:30;99210.50;;;8.47;96.42
20424;BME280;10371;49.042;8.002;2023-03-25T03:36:37;99219.22;;;8.46;95.81
20424;BME280;10371;49.042;8.002;2023-03-25T03:37:42;99216.34;;;8.49;95.52
20424;BME280;10371;49.042;8.002;2023-03-25T03:38:48;99221.53;;;8.49;95.23
20424;BME280;10371;49.042;8.002;2023-03-25T03:39:50;99225.81;;;8.50;95.10
20424;BME280;10371;49.042;8.002;2023-03-25T03:40:58;99219.09;;;8.48;94.64
20424;BME280;10371;49.042;8.002;2023-03-25T03:42:09;99222.50;;;8.48;94.80
20424;BME280;10371;49.042;8.002;2023-03-25T03:43:18;99227.84;;;8.47;94.77
20424;BME280;10371;49.042;8.002;2023-03-25T03:44:25;99225.56;;;8.54;94.43
20424;BME280;10371;49.042;8.002;2023-03-25T03:45:39;99220.00;;;8.58;94.50
20424;BME280;10371;49.042;8.002;2023-03-25T03:46:48;99223.66;;;8.56;94.26
20424;BME280;10371;49.042;8.002;2023-03-25T03:47:53;99226.00;;;8.59;94.17
20424;BME280;10371;49.042;8.002;2023-03-25T03:48:57;99225.03;;;8.60;93.96
20424;BME280;10371;49.042;8.002;2023-03-25T03:50:04;99226.94;;;8.58;93.78
20424;BME280;10371;49.042;8.002;2023-03-25T03:52:24;99236.75;;;8.54;93.86
20424;BME280;10371;49.042;8.002;2023-03-25T03:53:33;99239.22;;;8.56;93.99
20424;BME280;10371;49.042;8.002;2023-03-25T03:54:47;99237.31;;;8.58;94.36
20424;BME280;10371;49.042;8.002;2023-03-25T03:55:53;99238.16;;;8.58;94.25
20424;BME280;10371;49.042;8.002;2023-03-25T03:57:15;99237.19;;;8.59;93.68
20424;BME280;10371;49.042;8.002;2023-03-25T03:58:28;99237.31;;;8.58;94.06
20424;BME280;10371;49.042;8.002;2023-03-25T04:00:12;99237.00;;;8.51;94.39
20424;BME280;10371;49.042;8.002;2023-03-25T04:01:21;99228.50;;;8.49;93.85
20424;BME280;10371;49.042;8.002;2023-03-25T04:02:32;99242.31;;;8.49;93.74
20424;BME280;10371;49.042;8.002;2023-03-25T04:03:54;99238.78;;;8.50;94.26
20424;BME280;10371;49.042;8.002;2023-03-25T04:04:56;99250.94;;;8.50;94.17
20424;BME280;10371;49.042;8.002;2023-03-25T04:06:28;99245.59;;;8.52;94.25
20424;BME280;10371;49.042;8.002;2023-03-25T04:07:34;99254.19;;;8.52;94.01
20424;BME280;10371;49.042;8.002;2023-03-25T04:08:51;99253.38;;;8.52;94.05
20424;BME280;10371;49.042;8.002;2023-03-25T04:11:19;99250.34;;;8.46;94.46
20424;BME280;10371;49.042;8.002;2023-03-25T04:12:45;99247.63;;;8.48;94.65
20424;BME280;10371;49.042;8.002;2023-03-25T04:13:48;99248.19;;;8.52;94.21
20424;BME280;10371;49.042;8.002;2023-03-25T04:14:52;99239.47;;;8.53;93.81
20424;BME280;10371;49.042;8.002;2023-03-25T04:15:52;99244.66;;;8.53;93.30
20424;BME280;10371;49.042;8.002;2023-03-25T04:16:54;99235.94;;;8.54;93.64
20424;BME280;10371;49.042;8.002;2023-03-25T04:17:54;99238.78;;;8.50;93.74
20424;BME280;10371;49.042;8.002;2023-03-25T04:18:54;99229.09;;;8.53;93.38
20424;BME280;10371;49.042;8.002;2023-03-25T04:19:58;99236.19;;;8.50;93.08
20424;BME280;10371;49.042;8.002;2023-03-25T04:20:59;99246.56;;;8.50;93.12
20424;BME280;10371;49.042;8.002;2023-03-25T04:22:01;99235.47;;;8.48;93.25
20424;BME280;10371;49.042;8.002;2023-03-25T04:23:03;99237.97;;;8.50;93.14
20424;BME280;10371;49.042;8.002;2023-03-25T04:24:08;99244.66;;;8.53;92.93
20424;BME280;10371;49.042;8.002;2023-03-25T04:25:11;99232.25;;;8.56;93.25
20424;BME280;10371;49.042;8.002;2023-03-25T04:26:13;99245.50;;;8.53;93.41
20424;BME280;10371;49.042;8.002;2023-03-25T04:27:13;99244.41;;;8.56;93.65
20424;BME280;10371;49.042;8.002;2023-03-25T04:28:14;99249.72;;;8.54;93.69
20424;BME280;10371;49.042;8.002;2023-03-25T04:29:16;99249.59;;;8.56;93.96
20424;BME280;10371;49.042;8.002;2023-03-25T04:30:18;99247.94;;;8.55;94.39
20424;BME280;10371;49.042;8.002;2023-03-25T04:31:19;99250.16;;;8.59;94.76
20424;BME280;10371;49.042;8.002;2023-03-25T04:32:19;99235.38;;;8.50;95.50
20424;BME280;10371;49.042;8.002;2023-03-25T04:33:21;99239.84;;;8.48;95.96
20424;BME280;10371;49.042;8.002;2023-03-25T04:34:22;99249.41;;;8.47;96.54
20424;BME280;10371;49.042;8.002;2023-03-25T04:35:22;99237.25;;;8.48;96.68
20424;BME280;10371;49.042;8.002;2023-03-25T04:36:25;99237.38;;;8.46;97.09
20424;BME280;10371;49.042;8.002;2023-03-25T04:37:28;99249.06;;;8.41;97.85
20424;BME280;10371;49.042;8.002;2023-03-25T04:38:28;99241.72;;;8.46;98.49
20424;BME280;10371;49.042;8.002;2023-03-25T04:39:29;99245.41;;;8.43;98.68
20424;BME280;10371;49.042;8.002;2023-03-25T04:40:31;99248.13;;;8.42;98.82
20424;BME280;10371;49.042;8.002;2023-03-25T04:41:32;99244.00;;;8.39;98.76
20424;BME280;10371;49.042;8.002;2023-03-25T04:42:32;99254.38;;;8.39;98.79
20424;BME280;10371;49.042;8.002;2023-03-25T04:43:36;99254.38;;;8.39;99.04
20424;BME280;10371;49.042;8.002;2023-03-25T04:44:38;99260.16;;;8.43;99.35
20424;BME280;10371;49.042;8.002;2023-03-25T04:45:38;99265.59;;;8.40;99.35
20424;BME280;10371;49.042;8.002;2023-03-25T04:46:42;99259.66;;;8.38;99.63
20424;BME280;10371;49.042;8.002;2023-03-25T04:47:47;99254.72;;;8.35;99.81
20424;BME280;10371;49.042;8.002;2023-03-25T04:48:48;99263.06;;;8.38;100.00
20424;BME280;10371;49.042;8.002;2023-03-25T04:49:48;99248.00;;;8.32;100.00
20424;BME280;10371;49.042;8.002;2023-03-25T04:50:48;99263.19;;;8.48;99.84
20424;BME280;10371;49.042;8.002;2023-03-25T04:51:52;99265.91;;;8.46;99.22
20424;BME280;10371;49.042;8.002;2023-03-25T04:52:54;99261.78;;;8.44;99.18
20424;BME280;10371;49.042;8.002;2023-03-25T04:53:59;99267.56;;;8.47;99.01
20424;BME280;10371;49.042;8.002;2023-03-25T04:55:00;99264.81;;;8.49;98.94
20424;BME280;10371;49.042;8.002;2023-03-25T04:56:00;99271.09;;;8.46;99.39
20424;BME280;10371;49.042;8.002;2023-03-25T04:57:00;99277.47;;;8.42;99.90
20424;BME280;10371;49.042;8.002;2023-03-25T04:58:00;99271.09;;;8.46;100.00
20424;BME280;10371;49.042;8.002;2023-03-25T04:59:01;99264.25;;;8.45;100.00
20424;BME280;10371;49.042;8.002;2023-03-25T05:00:02;99272.75;;;8.47;100.00
20424;BME280;10371;49.042;8.002;2023-03-25T05:01:05;99271.94;;;8.47;100.00
20424;BME280;10371;49.042;8.002;2023-03-25T05:02:10;99274.38;;;8.48;100.00
20424;BME280;10371;49.042;8.002;2023-03-25T05:03:12;99272.75;;;8.47;100.00
20424;BME280;10371;49.042;8.002;2023-03-25T05:04:16;99280.03;;;8.54;100.00
20424;BME280;10371;49.042;8.002;2023-03-25T05:05:18;99278.41;;;8.53;100.00
20424;BME280;10371;49.042;8.002;2023-03-25T05:06:20;99277.69;;;8.50;100.00
20424;BME280;10371;49.042;8.002;2023-03-25T05:07:20;99282.88;;;8.50;100.00
20424;BME280;10371;49.042;8.002;2023-03-25T05:08:20;99273.56;;;8.48;100.00
20424;BME280;10371;49.042;8.002;2023-03-25T05:09:21;99262.38;;;8.47;99.97
20424;BME280;10371;49.042;8.002;2023-03-25T05:10:23;99262.22;;;8.49;99.71
20424;BME280;10371;49.042;8.002;2023-03-25T05:11:24;99260.03;;;8.44;99.29
20424;BME280;10371;49.042;8.002;2023-03-25T05:12:24;99273.94;;;8.43;99.27
20424;BME280;10371;49.042;8.002;2023-03-25T05:13:24;99269.94;;;8.39;99.15
20424;BME280;10371;49.042;8.002;2023-03-25T05:14:25;99274.88;;;8.42;99.13
20424;BME280;10371;49.042;8.002;2023-03-25T05:15:25;99278.53;;;8.40;98.98
20424;BME280;10371;49.042;8.002;2023-03-25T05:16:25;99276.16;;;8.37;98.96
20424;BME280;10371;49.042;8.002;2023-03-25T05:17:25;99271.22;;;8.34;98.83
20424;BME280;10371;49.042;8.002;2023-03-25T05:18:26;99272.06;;;8.34;98.90
20424;BME280;10371;49.042;8.002;2023-03-25T05:19:26;99272.88;;;8.35;99.02
20424;BME280;10371;49.042;8.002;2023-03-25T05:20:27;99277.50;;;8.31;99.30
20424;BME280;10371;49.042;8.002;2023-03-25T05:21:29;99279.84;;;8.34;99.55
20424;BME280;10371;49.042;8.002;2023-03-25T05:22:30;99270.84;;;8.38;99.35
20424;BME280;10371;49.042;8.002;2023-03-25T05:23:31;99266.41;;;8.40;99.03
20424;BME280;10371;49.042;8.002;2023-03-25T05:24:31;99260.59;;;8.37;98.86
20424;BME280;10371;49.042;8.002;2023-03-25T05:25:32;99266.03;;;8.45;98.14
20424;BME280;10371;49.042;8.002;2023-03-25T05:26:34;99278.63;;;8.49;97.67
20424;BME280;10371;49.042;8.002;2023-03-25T05:27:35;99273.22;;;8.53;97.39
20424;BME280;10371;49.042;8.002;2023-03-25T05:28:36;99272.34;;;8.52;97.34
20424;BME280;10371;49.042;8.002;2023-03-25T05:29:38;99274.38;;;8.48;97.21
20424;BME280;10371;49.042;8.002;2023-03-25T05:30:43;99273.88;;;8.55;97.13
20424;BME280;10371;49.042;8.002;2023-03-25T05:31:45;99279.88;;;8.55;97.17
20424;BME280;10371;49.042;8.002;2023-03-25T05:32:45;99280.75;;;8.56;97.10
20424;BME280;10371;49.042;8.002;2023-03-25T05:33:49;99278.81;;;8.58;97.09
20424;BME280;10371;49.042;8.002;2023-03-25T05:34:53;99273.63;;;8.58;97.03
20424;BME280;10371;49.042;8.002;2023-03-25T05:35:53;99277.63;;;8.62;96.76
20424;BME280;10371;49.042;8.002;2023-03-25T05:36:54;99277.38;;;8.65;96.36
20424;BME280;10371;49.042;8.002;2023-03-25T05:37:54;99279.72;;;8.68;96.05
20424;BME280;10371;49.042;8.002;2023-03-25T05:38:54;99278.97;;;8.77;95.86
20424;BME280;10371;49.042;8.002;2023-03-25T05:39:55;99274.03;;;8.74;95.36
20424;BME280;10371;49.042;8.002;2023-03-25T05:40:56;99272.97;;;8.77;95.19
20424;BME280;10371;49.042;8.002;2023-03-25T05:41:56;99277.59;;;8.73;95.07
20424;BME280;10371;49.042;8.002;2023-03-25T05:43:01;99270.75;;;8.72;95.09
20424;BME280;10371;49.042;8.002;2023-03-25T05:44:02;99272.97;;;8.77;94.98
20424;BME280;10371;49.042;8.002;2023-03-25T05:45:03;99273.09;;;8.75;94.88
20424;BME280;10371;49.042;8.002;2023-03-25T05:46:03;99274.63;;;8.78;95.06
20424;BME280;10371;49.042;8.002;2023-03-25T05:47:04;99287.72;;;8.76;94.50
20424;BME280;10371;49.042;8.002;2023-03-25T05:48:05;99293.16;;;8.73;94.36
20424;BME280;10371;49.042;8.002;2023-03-25T05:49:05;99295.56;;;8.65;94.47
20424;BME280;10371;49.042;8.002;2023-03-25T05:50:06;99300.63;;;8.66;94.69
20424;BME280;10371;49.042;8.002;2023-03-25T05:51:11;99302.72;;;8.72;94.80
20424;BME280;10371;49.042;8.002;2023-03-25T05:52:12;99295.50;;;8.76;94.97
20424;BME280;10371;49.042;8.002;2023-03-25T05:53:13;99302.53;;;8.85;94.68
20424;BME280;10371;49.042;8.002;2023-03-25T05:54:17;99313.50;;;8.89;94.39
20424;BME280;10371;49.042;8.002;2023-03-25T05:55:20;99311.59;;;8.91;93.99
20424;BME280;10371;49.042;8.002;2023-03-25T05:56:21;99299.31;;;8.93;93.96
20424;BME280;10371;49.042;8.002;2023-03-25T05:57:23;99307.25;;;8.91;94.16
20424;BME280;10371;49.042;8.002;2023-03-25T05:58:23;99318.44;;;8.92;93.99
20424;BME280;10371;49.042;8.002;2023-03-25T05:59:24;99298.75;;;8.89;94.42
20424;BME280;10371;49.042;8.002;2023-03-25T06:00:24;99306.97;;;8.94;94.29
20424;BME280;10371;49.042;8.002;2023-03-25T06:01:24;99306.13;;;8.94;94.27
20424;BME280;10371;49.042;8.002;2023-03-25T06:02:26;99305.31;;;8.93;94.55
20424;BME280;10371;49.042;8.002;2023-03-25T06:03:27;99299.56;;;8.90;94.96
20424;BME280;10371;49.042;8.002;2023-03-25T06:04:27;99306.38;;;8.91;95.22
20424;BME280;10371;49.042;8.002;2023-03-25T06:05:27;99324.19;;;8.95;95.88
20424;BME280;10371;49.042;8.002;2023-03-25T06:06:30;99322.56;;;8.94;96.25
20424;BME280;10371;49.042;8.002;2023-03-25T06:07:32;99325.16;;;8.94;97.06
20424;BME280;10371;49.042;8.002;2023-03-25T06:08:33;99320.63;;;8.97;97.89
20424;BME280;10371;49.042;8.002;2023-03-25T06:09:34;99314.63;;;8.96;98.79
20424;BME280;10371;49.042;8.002;2023-03-25T06:10:35;99319.25;;;8.92;99.54
20424;BME280;10371;49.042;8.002;2023-03-25T06:11:35;99318.09;;;8.85;100.00